sensor_id;sensor_type;location;lat;lon;timestamp;P1;durP1;ratioP1;P2;durP2;ratioP2
65757;SDS011;52495;52.208;5.158;2023-04-01T00:01:40;25.33;;;8.93;;
65757;SDS011;52495;52.208;5.158;2023-04-01T00:04:09;27.98;;;10.35;;
65757;SDS011;52495;52.208;5.158;2023-04-01T00:06:35;24.35;;;9.07;;
65757;SDS011;52495;52.208;5.158;2023-04-01T00:09:02;28.25;;;9.77;;
65757;SDS011;52495;52.208;5.158;2023-04-01T00:11:30;31.85;;;10.50;;
65757;SDS011;52495;52.208;5.158;2023-04-01T00:13:56;29.35;;;9.77;;
65757;SDS011;52495;52.208;5.158;2023-04-01T00:16:23;25.48;;;10.63;;
65757;SDS011;52495;52.208;5.158;2023-04-01T00:18:51;31.63;;;10.82;;
65757;SDS011;52495;52.208;5.158;2023-04-01T00:21:19;26.25;;;10.60;;
65757;SDS011;52495;52.208;5.158;2023-04-01T00:23:47;30.73;;;12.30;;
65757;SDS011;52495;52.208;5.158;2023-04-01T00:26:14;32.28;;;11.52;;
65757;SDS011;52495;52.208;5.158;2023-04-01T00:28:44;30.60;;;11.77;;
65757;SDS011;52495;52.208;5.158;2023-04-01T00:31:11;30.85;;;11.05;;
65757;SDS011;52495;52.208;5.158;2023-04-01T00:33:38;29.17;;;13.18;;
65757;SDS011;52495;52.208;5.158;2023-04-01T00:36:05;33.65;;;14.40;;
65757;SDS011;52495;52.208;5.158;2023-04-01T00:38:36;30.38;;;13.07;;
65757;SDS011;52495;52.208;5.158;2023-04-01T00:41:04;36.75;;;14.05;;
65757;SDS011;52495;52.208;5.158;2023-04-01T00:43:32;36.58;;;15.07;;
65757;SDS011;52495;52.208;5.158;2023-04-01T00:45:59;39.65;;;14.68;;
65757;SDS011;52495;52.208;5.158;2023-04-01T00:48:26;28.65;;;13.13;;
65757;SDS011;52495;52.208;5.158;2023-04-01T00:50:56;32.65;;;14.35;;
65757;SDS011;52495;52.208;5.158;2023-04-01T00:53:27;37.30;;;15.88;;
65757;SDS011;52495;52.208;5.158;2023-04-01T00:55:58;30.48;;;13.02;;
65757;SDS011;52495;52.208;5.158;2023-04-01T00:58:29;29.80;;;13.00;;
65757;SDS011;52495;52.208;5.158;2023-04-01T01:00:59;29.10;;;13.70;;
65757;SDS011;52495;52.208;5.158;2023-04-01T01:03:27;31.98;;;12.88;;
65757;SDS011;52495;52.208;5.158;2023-04-01T01:05:59;29.70;;;13.40;;
65757;SDS011;52495;52.208;5.158;2023-04-01T01:08:39;22.15;;;11.93;;
65757;SDS011;52495;52.208;5.158;2023-04-01T01:11:18;25.48;;;10.95;;
65757;SDS011;52495;52.208;5.158;2023-04-01T01:13:50;21.33;;;10.95;;
65757;SDS011;52495;52.208;5.158;2023-04-01T01:16:24;19.30;;;8.85;;
65757;SDS011;52495;52.208;5.158;2023-04-01T01:18:56;19.10;;;8.73;;
65757;SDS011;52495;52.208;5.158;2023-04-01T01:21:47;19.80;;;8.88;;
65757;SDS011;52495;52.208;5.158;2023-04-01T01:24:30;17.95;;;7.85;;
65757;SDS011;52495;52.208;5.158;2023-04-01T01:27:15;15.25;;;8.23;;
65757;SDS011;52495;52.208;5.158;2023-04-01T01:32:43;16.27;;;7.30;;
65757;SDS011;52495;52.208;5.158;2023-04-01T01:35:32;14.05;;;6.80;;
65757;SDS011;52495;52.208;5.158;2023-04-01T01:38:06;18.40;;;6.85;;
65757;SDS011;52495;52.208;5.158;2023-04-01T01:40:36;14.38;;;5.93;;
65757;SDS011;52495;52.208;5.158;2023-04-01T01:43:08;16.73;;;7.57;;
65757;SDS011;52495;52.208;5.158;2023-04-01T01:45:39;12.00;;;6.75;;
65757;SDS011;52495;52.208;5.158;2023-04-01T01:48:10;14.93;;;7.30;;
65757;SDS011;52495;52.208;5.158;2023-04-01T01:50:40;13.02;;;6.72;;
65757;SDS011;52495;52.208;5.158;2023-04-01T01:53:10;11.60;;;5.63;;
65757;SDS011;52495;52.208;5.158;2023-04-01T01:55:39;13.23;;;5.70;;
65757;SDS011;52495;52.208;5.158;2023-04-01T01:58:09;12.77;;;6.00;;
65757;SDS011;52495;52.208;5.158;2023-04-01T02:00:41;13.18;;;6.40;;
65757;SDS011;52495;52.208;5.158;2023-04-01T02:03:13;12.60;;;5.97;;
65757;SDS011;52495;52.208;5.158;2023-04-01T02:05:43;10.80;;;5.75;;
65757;SDS011;52495;52.208;5.158;2023-04-01T02:08:12;10.48;;;5.57;;
65757;SDS011;52495;52.208;5.158;2023-04-01T02:10:43;12.32;;;5.63;;
65757;SDS011;52495;52.208;5.158;2023-04-01T02:13:18;15.02;;;6.75;;
65757;SDS011;52495;52.208;5.158;2023-04-01T02:15:51;17.75;;;6.78;;
65757;SDS011;52495;52.208;5.158;2023-04-01T02:18:23;12.35;;;5.75;;
65757;SDS011;52495;52.208;5.158;2023-04-01T02:20:51;14.63;;;6.28;;
65757;SDS011;52495;52.208;5.158;2023-04-01T02:23:18;15.77;;;6.85;;
65757;SDS011;52495;52.208;5.158;2023-04-01T02:25:46;13.60;;;6.00;;
65757;SDS011;52495;52.208;5.158;2023-04-01T02:28:14;11.23;;;6.18;;
65757;SDS011;52495;52.208;5.158;2023-04-01T02:30:45;10.68;;;6.55;;
65757;SDS011;52495;52.208;5.158;2023-04-01T02:33:16;13.23;;;6.25;;
65757;SDS011;52495;52.208;5.158;2023-04-01T02:35:43;13.73;;;6.40;;
65757;SDS011;52495;52.208;5.158;2023-04-01T02:38:11;15.65;;;6.75;;
65757;SDS011;52495;52.208;5.158;2023-04-01T02:40:42;12.38;;;6.57;;
65757;SDS011;52495;52.208;5.158;2023-04-01T02:43:13;12.52;;;7.72;;
65757;SDS011;52495;52.208;5.158;2023-04-01T02:45:41;18.38;;;8.02;;
65757;SDS011;52495;52.208;5.158;2023-04-01T02:48:08;16.85;;;8.20;;
65757;SDS011;52495;52.208;5.158;2023-04-01T02:50:35;15.75;;;9.07;;
65757;SDS011;52495;52.208;5.158;2023-04-01T02:53:02;20.92;;;11.57;;
65757;SDS011;52495;52.208;5.158;2023-04-01T02:55:32;21.17;;;12.35;;
65757;SDS011;52495;52.208;5.158;2023-04-01T02:57:59;21.15;;;12.50;;
65757;SDS011;52495;52.208;5.158;2023-04-01T03:00:28;28.17;;;13.77;;
65757;SDS011;52495;52.208;5.158;2023-04-01T03:02:55;26.63;;;14.57;;
65757;SDS011;52495;52.208;5.158;2023-04-01T03:05:22;36.60;;;15.82;;
65757;SDS011;52495;52.208;5.158;2023-04-01T03:07:49;33.78;;;16.15;;
65757;SDS011;52495;52.208;5.158;2023-04-01T03:10:16;37.95;;;17.02;;
65757;SDS011;52495;52.208;5.158;2023-04-01T03:12:44;36.60;;;16.75;;
65757;SDS011;52495;52.208;5.158;2023-04-01T03:15:11;36.05;;;16.60;;
65757;SDS011;52495;52.208;5.158;2023-04-01T03:17:40;41.75;;;18.73;;
65757;SDS011;52495;52.208;5.158;2023-04-01T03:20:07;41.35;;;19.17;;
65757;SDS011;52495;52.208;5.158;2023-04-01T03:22:36;39.88;;;17.73;;
65757;SDS011;52495;52.208;5.158;2023-04-01T03:25:03;37.67;;;17.83;;
65757;SDS011;52495;52.208;5.158;2023-04-01T03:27:32;32.22;;;15.95;;
65757;SDS011;52495;52.208;5.158;2023-04-01T03:30:01;34.30;;;18.48;;
65757;SDS011;52495;52.208;5.158;2023-04-01T03:32:28;32.25;;;16.25;;
65757;SDS011;52495;52.208;5.158;2023-04-01T03:34:55;28.55;;;14.20;;
65757;SDS011;52495;52.208;5.158;2023-04-01T03:37:22;31.30;;;15.70;;
65757;SDS011;52495;52.208;5.158;2023-04-01T03:39:50;28.52;;;14.93;;
65757;SDS011;52495;52.208;5.158;2023-04-01T03:42:17;30.63;;;16.08;;
65757;SDS011;52495;52.208;5.158;2023-04-01T03:44:44;26.63;;;14.55;;
65757;SDS011;52495;52.208;5.158;2023-04-01T03:47:12;33.88;;;16.67;;
65757;SDS011;52495;52.208;5.158;2023-04-01T03:49:39;26.88;;;15.02;;
65757;SDS011;52495;52.208;5.158;2023-04-01T03:52:08;21.13;;;10.50;;
65757;SDS011;52495;52.208;5.158;2023-04-01T03:54:36;20.75;;;12.05;;
65757;SDS011;52495;52.208;5.158;2023-04-01T03:57:03;21.98;;;10.95;;
65757;SDS011;52495;52.208;5.158;2023-04-01T03:59:31;13.77;;;8.35;;
65757;SDS011;52495;52.208;5.158;2023-04-01T04:01:58;12.05;;;6.95;;
65757;SDS011;52495;52.208;5.158;2023-04-01T04:04:26;13.73;;;7.95;;
65757;SDS011;52495;52.208;5.158;2023-04-01T04:06:54;8.07;;;5.25;;
65757;SDS011;52495;52.208;5.158;2023-04-01T04:09:22;13.00;;;6.40;;
65757;SDS011;52495;52.208;5.158;2023-04-01T04:11:49;9.27;;;4.78;;
65757;SDS011;52495;52.208;5.158;2023-04-01T04:14:16;6.80;;;4.50;;
65757;SDS011;52495;52.208;5.158;2023-04-01T04:16:44;7.93;;;4.95;;
65757;SDS011;52495;52.208;5.158;2023-04-01T04:19:11;10.30;;;5.00;;
65757;SDS011;52495;52.208;5.158;2023-04-01T04:21:40;8.15;;;4.47;;
65757;SDS011;52495;52.208;5.158;2023-04-01T04:24:08;7.68;;;4.45;;
65757;SDS011;52495;52.208;5.158;2023-04-01T04:26:55;7.38;;;3.80;;
65757;SDS011;52495;52.208;5.158;2023-04-01T04:29:22;7.72;;;4.90;;
65757;SDS011;52495;52.208;5.158;2023-04-01T04:31:49;10.75;;;6.50;;
65757;SDS011;52495;52.208;5.158;2023-04-01T04:34:15;9.40;;;5.55;;
65757;SDS011;52495;52.208;5.158;2023-04-01T04:36:45;11.85;;;6.97;;
65757;SDS011;52495;52.208;5.158;2023-04-01T04:39:12;10.50;;;6.63;;
65757;SDS011;52495;52.208;5.158;2023-04-01T04:41:40;10.15;;;6.25;;
65757;SDS011;52495;52.208;5.158;2023-04-01T04:44:08;8.77;;;5.80;;
65757;SDS011;52495;52.208;5.158;2023-04-01T04:46:34;10.93;;;7.47;;
65757;SDS011;52495;52.208;5.158;2023-04-01T04:49:10;13.52;;;7.35;;
65757;SDS011;52495;52.208;5.158;2023-04-01T04:51:37;10.70;;;6.75;;
65757;SDS011;52495;52.208;5.158;2023-04-01T04:54:05;9.10;;;5.90;;
65757;SDS011;52495;52.208;5.158;2023-04-01T04:56:54;10.00;;;6.32;;
65757;SDS011;52495;52.208;5.158;2023-04-01T04:59:23;10.90;;;6.90;;
65757;SDS011;52495;52.208;5.158;2023-04-01T05:02:04;8.60;;;5.78;;
65757;SDS011;52495;52.208;5.158;2023-04-01T05:04:33;11.63;;;7.75;;
65757;SDS011;52495;52.208;5.158;2023-04-01T05:07:01;15.23;;;8.43;;
65757;SDS011;52495;52.208;5.158;2023-04-01T05:09:30;11.57;;;7.05;;
65757;SDS011;52495;52.208;5.158;2023-04-01T05:11:57;12.07;;;7.70;;
65757;SDS011;52495;52.208;5.158;2023-04-01T05:14:26;11.35;;;7.30;;
65757;SDS011;52495;52.208;5.158;2023-04-01T05:17:03;13.88;;;8.30;;
65757;SDS011;52495;52.208;5.158;2023-04-01T05:19:30;12.38;;;7.30;;
65757;SDS011;52495;52.208;5.158;2023-04-01T05:21:57;12.80;;;6.82;;
65757;SDS011;52495;52.208;5.158;2023-04-01T05:24:24;12.15;;;7.80;;
65757;SDS011;52495;52.208;5.158;2023-04-01T05:26:52;12.48;;;8.52;;
65757;SDS011;52495;52.208;5.158;2023-04-01T05:29:19;12.73;;;7.57;;
65757;SDS011;52495;52.208;5.158;2023-04-01T05:31:54;13.43;;;7.65;;
65757;SDS011;52495;52.208;5.158;2023-04-01T05:34:21;11.65;;;7.28;;
65757;SDS011;52495;52.208;5.158;2023-04-01T05:36:48;12.20;;;8.10;;
65757;SDS011;52495;52.208;5.158;2023-04-01T05:39:16;15.63;;;7.85;;
65757;SDS011;52495;52.208;5.158;2023-04-01T05:41:43;16.15;;;8.40;;
65757;SDS011;52495;52.208;5.158;2023-04-01T05:44:11;14.75;;;9.05;;
65757;SDS011;52495;52.208;5.158;2023-04-01T05:46:39;12.93;;;8.27;;
65757;SDS011;52495;52.208;5.158;2023-04-01T05:49:25;12.15;;;8.13;;
65757;SDS011;52495;52.208;5.158;2023-04-01T05:51:52;15.63;;;9.07;;
65757;SDS011;52495;52.208;5.158;2023-04-01T05:54:19;13.00;;;8.02;;
65757;SDS011;52495;52.208;5.158;2023-04-01T05:56:46;15.63;;;8.43;;
65757;SDS011;52495;52.208;5.158;2023-04-01T05:59:14;13.82;;;8.57;;
65757;SDS011;52495;52.208;5.158;2023-04-01T06:01:41;14.60;;;8.18;;
65757;SDS011;52495;52.208;5.158;2023-04-01T06:04:10;14.70;;;8.68;;
65757;SDS011;52495;52.208;5.158;2023-04-01T06:06:40;16.00;;;8.57;;
65757;SDS011;52495;52.208;5.158;2023-04-01T06:09:12;15.68;;;9.07;;
65757;SDS011;52495;52.208;5.158;2023-04-01T06:11:54;11.80;;;8.00;;
65757;SDS011;52495;52.208;5.158;2023-04-01T06:14:43;14.98;;;8.23;;
65757;SDS011;52495;52.208;5.158;2023-04-01T06:17:19;14.07;;;8.57;;
65757;SDS011;52495;52.208;5.158;2023-04-01T06:19:55;13.02;;;7.75;;
65757;SDS011;52495;52.208;5.158;2023-04-01T06:22:51;10.75;;;6.68;;
65757;SDS011;52495;52.208;5.158;2023-04-01T06:25:43;9.88;;;5.97;;
65757;SDS011;52495;52.208;5.158;2023-04-01T06:28:23;9.70;;;6.30;;
65757;SDS011;52495;52.208;5.158;2023-04-01T06:31:20;10.02;;;6.22;;
65757;SDS011;52495;52.208;5.158;2023-04-01T06:34:08;11.25;;;7.40;;
65757;SDS011;52495;52.208;5.158;2023-04-01T06:37:07;8.23;;;5.65;;
65757;SDS011;52495;52.208;5.158;2023-04-01T06:39:56;11.07;;;6.80;;
65757;SDS011;52495;52.208;5.158;2023-04-01T06:46:09;10.15;;;5.57;;
65757;SDS011;52495;52.208;5.158;2023-04-01T06:49:05;9.15;;;5.10;;
65757;SDS011;52495;52.208;5.158;2023-04-01T06:52:04;9.65;;;5.95;;
65757;SDS011;52495;52.208;5.158;2023-04-01T06:54:58;5.65;;;3.67;;
65757;SDS011;52495;52.208;5.158;2023-04-01T06:58:05;8.55;;;5.15;;
65757;SDS011;52495;52.208;5.158;2023-04-01T07:00:40;10.48;;;6.60;;
65757;SDS011;52495;52.208;5.158;2023-04-01T07:03:12;10.48;;;6.13;;
65757;SDS011;52495;52.208;5.158;2023-04-01T07:05:47;10.30;;;6.85;;
65757;SDS011;52495;52.208;5.158;2023-04-01T07:08:17;10.40;;;6.50;;
65757;SDS011;52495;52.208;5.158;2023-04-01T07:10:48;12.63;;;7.75;;
65757;SDS011;52495;52.208;5.158;2023-04-01T07:13:39;11.98;;;6.45;;
65757;SDS011;52495;52.208;5.158;2023-04-01T07:16:17;13.75;;;6.70;;
65757;SDS011;52495;52.208;5.158;2023-04-01T07:18:48;14.50;;;9.07;;
65757;SDS011;52495;52.208;5.158;2023-04-01T07:21:27;14.80;;;7.93;;
65757;SDS011;52495;52.208;5.158;2023-04-01T07:24:04;12.25;;;6.88;;
65757;SDS011;52495;52.208;5.158;2023-04-01T07:26:40;9.98;;;5.68;;
65757;SDS011;52495;52.208;5.158;2023-04-01T07:29:11;15.77;;;7.78;;
65757;SDS011;52495;52.208;5.158;2023-04-01T07:32:06;13.73;;;7.88;;
65757;SDS011;52495;52.208;5.158;2023-04-01T07:34:45;14.02;;;8.40;;
65757;SDS011;52495;52.208;5.158;2023-04-01T07:37:23;14.75;;;8.77;;
65757;SDS011;52495;52.208;5.158;2023-04-01T07:40:00;15.48;;;8.88;;
65757;SDS011;52495;52.208;5.158;2023-04-01T07:42:43;16.30;;;9.25;;
65757;SDS011;52495;52.208;5.158;2023-04-01T07:45:20;22.05;;;9.43;;
65757;SDS011;52495;52.208;5.158;2023-04-01T07:47:57;15.60;;;8.00;;
65757;SDS011;52495;52.208;5.158;2023-04-01T07:50:41;18.52;;;9.60;;
65757;SDS011;52495;52.208;5.158;2023-04-01T07:53:20;27.25;;;10.38;;
65757;SDS011;52495;52.208;5.158;2023-04-01T07:55:56;20.40;;;10.43;;
65757;SDS011;52495;52.208;5.158;2023-04-01T07:58:35;19.60;;;9.82;;
65757;SDS011;52495;52.208;5.158;2023-04-01T08:01:21;21.13;;;9.65;;
65757;SDS011;52495;52.208;5.158;2023-04-01T08:04:07;21.77;;;10.70;;
65757;SDS011;52495;52.208;5.158;2023-04-01T08:06:47;18.98;;;11.02;;
65757;SDS011;52495;52.208;5.158;2023-04-01T08:09:22;22.63;;;11.10;;
65757;SDS011;52495;52.208;5.158;2023-04-01T08:12:21;20.70;;;10.98;;
65757;SDS011;52495;52.208;5.158;2023-04-01T08:15:19;22.50;;;11.60;;
65757;SDS011;52495;52.208;5.158;2023-04-01T08:18:06;21.27;;;10.93;;
65757;SDS011;52495;52.208;5.158;2023-04-01T08:20:41;18.95;;;10.75;;
65757;SDS011;52495;52.208;5.158;2023-04-01T08:23:15;19.25;;;9.88;;
65757;SDS011;52495;52.208;5.158;2023-04-01T08:25:48;17.10;;;9.82;;
65757;SDS011;52495;52.208;5.158;2023-04-01T08:28:23;15.05;;;9.25;;
65757;SDS011;52495;52.208;5.158;2023-04-01T08:30:58;21.88;;;10.75;;
65757;SDS011;52495;52.208;5.158;2023-04-01T08:33:30;16.80;;;8.93;;
65757;SDS011;52495;52.208;5.158;2023-04-01T08:36:07;18.30;;;10.18;;
65757;SDS011;52495;52.208;5.158;2023-04-01T08:38:39;17.20;;;9.00;;
65757;SDS011;52495;52.208;5.158;2023-04-01T08:41:29;15.63;;;8.73;;
65757;SDS011;52495;52.208;5.158;2023-04-01T08:44:34;18.77;;;8.93;;
65757;SDS011;52495;52.208;5.158;2023-04-01T08:47:32;16.73;;;9.13;;
65757;SDS011;52495;52.208;5.158;2023-04-01T08:50:31;16.15;;;9.43;;
65757;SDS011;52495;52.208;5.158;2023-04-01T08:56:39;11.68;;;6.97;;
65757;SDS011;52495;52.208;5.158;2023-04-01T08:59:20;13.65;;;7.45;;
65757;SDS011;52495;52.208;5.158;2023-04-01T09:05:46;11.73;;;7.13;;
65757;SDS011;52495;52.208;5.158;2023-04-01T09:08:32;12.52;;;7.50;;
65757;SDS011;52495;52.208;5.158;2023-04-01T09:11:06;12.70;;;6.38;;
65757;SDS011;52495;52.208;5.158;2023-04-01T09:14:03;13.68;;;7.32;;
65757;SDS011;52495;52.208;5.158;2023-04-01T09:17:16;15.00;;;7.05;;
65757;SDS011;52495;52.208;5.158;2023-04-01T09:20:06;12.95;;;7.60;;
65757;SDS011;52495;52.208;5.158;2023-04-01T09:26:08;11.30;;;6.03;;
65757;SDS011;52495;52.208;5.158;2023-04-01T09:28:55;12.38;;;7.50;;
65757;SDS011;52495;52.208;5.158;2023-04-01T09:34:56;13.70;;;7.35;;
65757;SDS011;52495;52.208;5.158;2023-04-01T09:37:34;11.82;;;6.72;;
65757;SDS011;52495;52.208;5.158;2023-04-01T09:40:11;12.40;;;7.28;;
65757;SDS011;52495;52.208;5.158;2023-04-01T09:42:45;10.75;;;6.28;;
65757;SDS011;52495;52.208;5.158;2023-04-01T09:45:35;10.32;;;7.55;;
65757;SDS011;52495;52.208;5.158;2023-04-01T09:48:15;9.10;;;5.35;;
65757;SDS011;52495;52.208;5.158;2023-04-01T09:51:00;13.40;;;6.60;;
65757;SDS011;52495;52.208;5.158;2023-04-01T09:59:47;5.82;;;3.92;;
65757;SDS011;52495;52.208;5.158;2023-04-01T10:02:50;8.65;;;5.93;;
65757;SDS011;52495;52.208;5.158;2023-04-01T10:06:05;9.65;;;6.32;;
65757;SDS011;52495;52.208;5.158;2023-04-01T10:08:59;13.23;;;7.75;;
65757;SDS011;52495;52.208;5.158;2023-04-01T10:12:00;12.57;;;7.50;;
65757;SDS011;52495;52.208;5.158;2023-04-01T10:14:59;14.27;;;8.52;;
65757;SDS011;52495;52.208;5.158;2023-04-01T10:18:06;13.50;;;9.18;;
65757;SDS011;52495;52.208;5.158;2023-04-01T10:21:22;11.38;;;7.13;;
65757;SDS011;52495;52.208;5.158;2023-04-01T10:27:10;10.85;;;8.52;;
65757;SDS011;52495;52.208;5.158;2023-04-01T10:49:01;8.77;;;5.97;;
65757;SDS011;52495;52.208;5.158;2023-04-01T10:55:22;9.50;;;6.18;;
65757;SDS011;52495;52.208;5.158;2023-04-01T10:58:34;7.05;;;4.90;;
65757;SDS011;52495;52.208;5.158;2023-04-01T11:04:57;7.65;;;4.88;;
65757;SDS011;52495;52.208;5.158;2023-04-01T11:08:11;8.60;;;5.97;;
65757;SDS011;52495;52.208;5.158;2023-04-01T11:17:08;10.15;;;6.68;;
65757;SDS011;52495;52.208;5.158;2023-04-01T11:20:02;8.05;;;5.68;;
65757;SDS011;52495;52.208;5.158;2023-04-01T11:23:04;8.00;;;4.28;;
65757;SDS011;52495;52.208;5.158;2023-04-01T11:29:03;7.60;;;5.90;;
65757;SDS011;52495;52.208;5.158;2023-04-01T11:31:53;7.70;;;5.38;;
65757;SDS011;52495;52.208;5.158;2023-04-01T11:34:31;8.45;;;5.85;;
65757;SDS011;52495;52.208;5.158;2023-04-01T11:37:14;8.32;;;5.57;;
65757;SDS011;52495;52.208;5.158;2023-04-01T11:40:17;8.70;;;6.28;;
65757;SDS011;52495;52.208;5.158;2023-04-01T11:43:16;9.73;;;6.45;;
65757;SDS011;52495;52.208;5.158;2023-04-01T11:46:10;9.23;;;6.15;;
65757;SDS011;52495;52.208;5.158;2023-04-01T11:48:49;10.25;;;6.93;;
65757;SDS011;52495;52.208;5.158;2023-04-01T11:51:33;10.98;;;8.55;;
65757;SDS011;52495;52.208;5.158;2023-04-01T11:54:24;11.93;;;7.85;;
65757;SDS011;52495;52.208;5.158;2023-04-01T11:57:05;9.05;;;5.88;;
65757;SDS011;52495;52.208;5.158;2023-04-01T12:02:30;10.13;;;7.28;;
65757;SDS011;52495;52.208;5.158;2023-04-01T12:05:17;11.90;;;8.82;;
65757;SDS011;52495;52.208;5.158;2023-04-01T12:08:01;15.15;;;8.95;;
65757;SDS011;52495;52.208;5.158;2023-04-01T12:10:38;14.10;;;8.05;;
65757;SDS011;52495;52.208;5.158;2023-04-01T12:13:12;10.45;;;6.78;;
65757;SDS011;52495;52.208;5.158;2023-04-01T12:15:56;14.07;;;9.98;;
65757;SDS011;52495;52.208;5.158;2023-04-01T12:18:35;14.30;;;10.05;;
65757;SDS011;52495;52.208;5.158;2023-04-01T12:21:11;12.32;;;7.88;;
65757;SDS011;52495;52.208;5.158;2023-04-01T12:23:59;11.93;;;7.97;;
65757;SDS011;52495;52.208;5.158;2023-04-01T12:35:23;16.38;;;10.30;;
65757;SDS011;52495;52.208;5.158;2023-04-01T12:40:45;19.05;;;11.85;;
65757;SDS011;52495;52.208;5.158;2023-04-01T12:43:48;14.75;;;8.13;;
65757;SDS011;52495;52.208;5.158;2023-04-01T12:46:32;12.73;;;8.25;;
65757;SDS011;52495;52.208;5.158;2023-04-01T12:52:13;11.32;;;7.45;;
65757;SDS011;52495;52.208;5.158;2023-04-01T12:55:00;12.60;;;8.77;;
65757;SDS011;52495;52.208;5.158;2023-04-01T13:00:54;11.23;;;7.88;;
65757;SDS011;52495;52.208;5.158;2023-04-01T13:03:48;9.93;;;5.97;;
65757;SDS011;52495;52.208;5.158;2023-04-01T13:06:40;9.98;;;6.47;;
65757;SDS011;52495;52.208;5.158;2023-04-01T13:09:21;9.57;;;6.50;;
65757;SDS011;52495;52.208;5.158;2023-04-01T13:12:02;7.88;;;5.68;;
65757;SDS011;52495;52.208;5.158;2023-04-01T13:14:49;9.25;;;5.40;;
65757;SDS011;52495;52.208;5.158;2023-04-01T13:17:28;8.30;;;5.47;;
65757;SDS011;52495;52.208;5.158;2023-04-01T13:20:03;9.98;;;5.82;;
65757;SDS011;52495;52.208;5.158;2023-04-01T13:22:45;8.73;;;5.55;;
65757;SDS011;52495;52.208;5.158;2023-04-01T13:25:26;7.70;;;4.60;;
65757;SDS011;52495;52.208;5.158;2023-04-01T13:28:05;8.30;;;4.32;;
65757;SDS011;52495;52.208;5.158;2023-04-01T13:30:38;5.60;;;4.15;;
65757;SDS011;52495;52.208;5.158;2023-04-01T13:33:16;7.53;;;4.80;;
65757;SDS011;52495;52.208;5.158;2023-04-01T13:35:57;6.13;;;5.10;;
65757;SDS011;52495;52.208;5.158;2023-04-01T13:38:38;6.80;;;4.70;;
65757;SDS011;52495;52.208;5.158;2023-04-01T13:41:27;7.10;;;5.45;;
65757;SDS011;52495;52.208;5.158;2023-04-01T13:44:09;8.07;;;4.90;;
65757;SDS011;52495;52.208;5.158;2023-04-01T13:46:54;8.10;;;5.15;;
65757;SDS011;52495;52.208;5.158;2023-04-01T13:49:45;6.57;;;4.88;;
65757;SDS011;52495;52.208;5.158;2023-04-01T13:52:33;9.05;;;6.35;;
65757;SDS011;52495;52.208;5.158;2023-04-01T13:55:26;7.03;;;5.20;;
65757;SDS011;52495;52.208;5.158;2023-04-01T13:58:11;9.05;;;6.10;;
65757;SDS011;52495;52.208;5.158;2023-04-01T14:01:00;8.38;;;6.28;;
65757;SDS011;52495;52.208;5.158;2023-04-01T14:06:34;8.27;;;6.50;;
65757;SDS011;52495;52.208;5.158;2023-04-01T14:12:13;9.95;;;6.72;;
65757;SDS011;52495;52.208;5.158;2023-04-01T14:14:55;8.50;;;6.35;;
65757;SDS011;52495;52.208;5.158;2023-04-01T14:17:51;10.18;;;7.45;;
65757;SDS011;52495;52.208;5.158;2023-04-01T14:20:29;7.70;;;5.97;;
65757;SDS011;52495;52.208;5.158;2023-04-01T14:23:18;11.00;;;7.35;;
65757;SDS011;52495;52.208;5.158;2023-04-01T14:26:07;8.73;;;6.55;;
65757;SDS011;52495;52.208;5.158;2023-04-01T14:28:48;10.57;;;6.32;;
65757;SDS011;52495;52.208;5.158;2023-04-01T14:31:25;9.93;;;7.10;;
65757;SDS011;52495;52.208;5.158;2023-04-01T14:34:05;8.05;;;5.93;;
65757;SDS011;52495;52.208;5.158;2023-04-01T14:36:43;9.13;;;6.25;;
65757;SDS011;52495;52.208;5.158;2023-04-01T14:39:22;9.27;;;6.90;;
65757;SDS011;52495;52.208;5.158;2023-04-01T14:42:06;8.68;;;5.63;;
65757;SDS011;52495;52.208;5.158;2023-04-01T14:44:49;6.80;;;5.20;;
65757;SDS011;52495;52.208;5.158;2023-04-01T14:47:34;8.32;;;6.70;;
65757;SDS011;52495;52.208;5.158;2023-04-01T14:50:12;8.60;;;5.70;;
65757;SDS011;52495;52.208;5.158;2023-04-01T14:52:42;9.23;;;6.13;;
65757;SDS011;52495;52.208;5.158;2023-04-01T14:55:21;10.73;;;7.50;;
65757;SDS011;52495;52.208;5.158;2023-04-01T14:57:58;7.45;;;5.78;;
65757;SDS011;52495;52.208;5.158;2023-04-01T15:00:27;8.55;;;6.85;;
65757;SDS011;52495;52.208;5.158;2023-04-01T15:03:09;9.40;;;7.40;;
65757;SDS011;52495;52.208;5.158;2023-04-01T15:05:45;8.02;;;6.18;;
65757;SDS011;52495;52.208;5.158;2023-04-01T15:08:16;9.75;;;6.43;;
65757;SDS011;52495;52.208;5.158;2023-04-01T15:14:01;6.95;;;5.18;;
65757;SDS011;52495;52.208;5.158;2023-04-01T15:16:41;9.68;;;6.78;;
65757;SDS011;52495;52.208;5.158;2023-04-01T15:19:20;8.82;;;5.95;;
65757;SDS011;52495;52.208;5.158;2023-04-01T15:22:05;7.72;;;5.20;;
65757;SDS011;52495;52.208;5.158;2023-04-01T15:25:00;9.38;;;6.53;;
65757;SDS011;52495;52.208;5.158;2023-04-01T15:27:47;9.50;;;6.38;;
65757;SDS011;52495;52.208;5.158;2023-04-01T15:30:23;8.77;;;6.50;;
65757;SDS011;52495;52.208;5.158;2023-04-01T15:35:57;7.65;;;6.28;;
65757;SDS011;52495;52.208;5.158;2023-04-01T15:38:39;8.45;;;6.10;;
65757;SDS011;52495;52.208;5.158;2023-04-01T15:41:14;9.48;;;5.68;;
65757;SDS011;52495;52.208;5.158;2023-04-01T15:43:43;9.70;;;5.50;;
65757;SDS011;52495;52.208;5.158;2023-04-01T15:46:20;7.18;;;5.65;;
65757;SDS011;52495;52.208;5.158;2023-04-01T15:49:06;9.18;;;5.65;;
65757;SDS011;52495;52.208;5.158;2023-04-01T15:51:56;8.40;;;5.90;;
65757;SDS011;52495;52.208;5.158;2023-04-01T15:54:45;6.97;;;4.68;;
65757;SDS011;52495;52.208;5.158;2023-04-01T15:57:28;7.68;;;6.03;;
65757;SDS011;52495;52.208;5.158;2023-04-01T16:00:19;8.07;;;5.97;;
65757;SDS011;52495;52.208;5.158;2023-04-01T16:02:58;7.93;;;5.97;;
65757;SDS011;52495;52.208;5.158;2023-04-01T16:05:42;6.55;;;4.63;;
65757;SDS011;52495;52.208;5.158;2023-04-01T16:08:37;6.63;;;5.03;;
65757;SDS011;52495;52.208;5.158;2023-04-01T16:11:20;9.88;;;5.38;;
65757;SDS011;52495;52.208;5.158;2023-04-01T16:13:59;7.25;;;5.43;;
65757;SDS011;52495;52.208;5.158;2023-04-01T16:16:44;7.50;;;5.35;;
65757;SDS011;52495;52.208;5.158;2023-04-01T16:19:36;9.15;;;5.75;;
65757;SDS011;52495;52.208;5.158;2023-04-01T16:22:12;6.93;;;5.25;;
65757;SDS011;52495;52.208;5.158;2023-04-01T16:27:14;5.82;;;3.72;;
65757;SDS011;52495;52.208;5.158;2023-04-01T16:29:47;4.00;;;2.75;;
65757;SDS011;52495;52.208;5.158;2023-04-01T16:38:04;5.43;;;3.40;;
65757;SDS011;52495;52.208;5.158;2023-04-01T16:40:47;4.22;;;2.58;;
65757;SDS011;52495;52.208;5.158;2023-04-01T16:43:26;6.15;;;3.20;;
65757;SDS011;52495;52.208;5.158;2023-04-01T16:46:05;4.95;;;3.10;;
65757;SDS011;52495;52.208;5.158;2023-04-01T16:48:58;5.05;;;3.22;;
65757;SDS011;52495;52.208;5.158;2023-04-01T16:51:33;4.15;;;2.50;;
65757;SDS011;52495;52.208;5.158;2023-04-01T16:54:11;4.07;;;2.72;;
65757;SDS011;52495;52.208;5.158;2023-04-01T16:56:43;4.68;;;3.08;;
65757;SDS011;52495;52.208;5.158;2023-04-01T16:59:17;4.45;;;3.40;;
65757;SDS011;52495;52.208;5.158;2023-04-01T17:01:49;4.43;;;3.50;;
65757;SDS011;52495;52.208;5.158;2023-04-01T17:04:23;4.18;;;3.10;;
65757;SDS011;52495;52.208;5.158;2023-04-01T17:06:58;3.92;;;3.15;;
65757;SDS011;52495;52.208;5.158;2023-04-01T17:09:42;4.38;;;3.40;;
65757;SDS011;52495;52.208;5.158;2023-04-01T17:12:25;5.00;;;3.85;;
65757;SDS011;52495;52.208;5.158;2023-04-01T17:15:01;4.85;;;3.58;;
65757;SDS011;52495;52.208;5.158;2023-04-01T17:17:38;5.35;;;3.10;;
65757;SDS011;52495;52.208;5.158;2023-04-01T17:20:13;6.57;;;3.38;;
65757;SDS011;52495;52.208;5.158;2023-04-01T17:22:52;5.40;;;3.17;;
65757;SDS011;52495;52.208;5.158;2023-04-01T17:25:26;3.55;;;2.70;;